sensor_id;sensor_type;location;lat;lon;timestamp;P1;durP1;ratioP1;P2;durP2;ratioP2
35056;SDS011;21241;51.828;19.574;2022-12-16T00:02:21;79.40;;;67.60;;
35056;SDS011;21241;51.828;19.574;2022-12-16T00:04:49;83.20;;;70.60;;
35056;SDS011;21241;51.828;19.574;2022-12-16T00:07:16;89.70;;;75.20;;
35056;SDS011;21241;51.828;19.574;2022-12-16T00:09:44;85.60;;;73.70;;
35056;SDS011;21241;51.828;19.574;2022-12-16T00:12:12;85.60;;;74.20;;
35056;SDS011;21241;51.828;19.574;2022-12-16T00:14:40;91.00;;;76.60;;
35056;SDS011;21241;51.828;19.574;2022-12-16T00:17:08;92.30;;;80.10;;
35056;SDS011;21241;51.828;19.574;2022-12-16T00:19:35;87.70;;;75.10;;
35056;SDS011;21241;51.828;19.574;2022-12-16T00:22:03;85.80;;;70.90;;
35056;SDS011;21241;51.828;19.574;2022-12-16T00:24:31;74.90;;;62.20;;
35056;SDS011;21241;51.828;19.574;2022-12-16T00:26:59;75.50;;;65.40;;
35056;SDS011;21241;51.828;19.574;2022-12-16T00:29:26;75.40;;;63.10;;
35056;SDS011;21241;51.828;19.574;2022-12-16T00:31:54;72.20;;;60.50;;
35056;SDS011;21241;51.828;19.574;2022-12-16T00:34:22;71.00;;;60.20;;
35056;SDS011;21241;51.828;19.574;2022-12-16T00:36:50;72.90;;;64.70;;
35056;SDS011;21241;51.828;19.574;2022-12-16T00:39:18;79.00;;;68.20;;
35056;SDS011;21241;51.828;19.574;2022-12-16T00:41:46;75.40;;;64.20;;
35056;SDS011;21241;51.828;19.574;2022-12-16T00:44:14;76.40;;;65.00;;
35056;SDS011;21241;51.828;19.574;2022-12-16T00:46:42;72.70;;;63.90;;
35056;SDS011;21241;51.828;19.574;2022-12-16T00:49:09;74.50;;;64.10;;
35056;SDS011;21241;51.828;19.574;2022-12-16T00:51:37;72.90;;;63.70;;
35056;SDS011;21241;51.828;19.574;2022-12-16T00:54:05;67.40;;;58.40;;
35056;SDS011;21241;51.828;19.574;2022-12-16T00:56:33;70.10;;;59.00;;
35056;SDS011;21241;51.828;19.574;2022-12-16T00:59:01;75.60;;;66.60;;
35056;SDS011;21241;51.828;19.574;2022-12-16T01:01:29;71.00;;;61.70;;
35056;SDS011;21241;51.828;19.574;2022-12-16T01:03:57;76.90;;;62.70;;
35056;SDS011;21241;51.828;19.574;2022-12-16T01:06:25;83.70;;;71.60;;
35056;SDS011;21241;51.828;19.574;2022-12-16T01:08:53;79.70;;;67.70;;
35056;SDS011;21241;51.828;19.574;2022-12-16T01:11:21;80.00;;;66.80;;
35056;SDS011;21241;51.828;19.574;2022-12-16T01:13:49;75.70;;;61.90;;
35056;SDS011;21241;51.828;19.574;2022-12-16T01:16:18;78.40;;;64.50;;
35056;SDS011;21241;51.828;19.574;2022-12-16T01:18:46;75.30;;;63.90;;
35056;SDS011;21241;51.828;19.574;2022-12-16T01:21:14;75.90;;;63.80;;
35056;SDS011;21241;51.828;19.574;2022-12-16T01:23:42;78.90;;;65.00;;
35056;SDS011;21241;51.828;19.574;2022-12-16T01:26:11;76.00;;;64.30;;
35056;SDS011;21241;51.828;19.574;2022-12-16T01:28:43;74.60;;;62.80;;
35056;SDS011;21241;51.828;19.574;2022-12-16T01:31:11;75.50;;;64.50;;
35056;SDS011;21241;51.828;19.574;2022-12-16T01:33:42;75.00;;;63.50;;
35056;SDS011;21241;51.828;19.574;2022-12-16T01:36:10;74.00;;;64.30;;
35056;SDS011;21241;51.828;19.574;2022-12-16T01:38:38;75.50;;;62.10;;
35056;SDS011;21241;51.828;19.574;2022-12-16T01:41:09;74.90;;;62.50;;
35056;SDS011;21241;51.828;19.574;2022-12-16T01:43:39;74.80;;;64.20;;
35056;SDS011;21241;51.828;19.574;2022-12-16T01:53:59;71.80;;;63.00;;
35056;SDS011;21241;51.828;19.574;2022-12-16T01:56:30;70.60;;;61.40;;
35056;SDS011;21241;51.828;19.574;2022-12-16T01:58:59;71.00;;;60.90;;
35056;SDS011;21241;51.828;19.574;2022-12-16T02:01:28;66.40;;;58.40;;
35056;SDS011;21241;51.828;19.574;2022-12-16T02:03:57;66.50;;;57.40;;
35056;SDS011;21241;51.828;19.574;2022-12-16T02:06:25;62.80;;;55.80;;
35056;SDS011;21241;51.828;19.574;2022-12-16T02:08:54;64.70;;;57.60;;
35056;SDS011;21241;51.828;19.574;2022-12-16T02:17:19;70.80;;;59.90;;
35056;SDS011;21241;51.828;19.574;2022-12-16T02:23:08;67.70;;;56.80;;
35056;SDS011;21241;51.828;19.574;2022-12-16T02:26:26;68.60;;;58.40;;
35056;SDS011;21241;51.828;19.574;2022-12-16T02:41:06;67.90;;;57.20;;
35056;SDS011;21241;51.828;19.574;2022-12-16T02:44:03;70.80;;;60.30;;
35056;SDS011;21241;51.828;19.574;2022-12-16T02:46:38;68.20;;;58.70;;
35056;SDS011;21241;51.828;19.574;2022-12-16T02:49:08;69.20;;;60.50;;
35056;SDS011;21241;51.828;19.574;2022-12-16T02:51:55;70.60;;;59.10;;
35056;SDS011;21241;51.828;19.574;2022-12-16T02:54:25;72.10;;;61.30;;
35056;SDS011;21241;51.828;19.574;2022-12-16T03:00:37;74.00;;;62.40;;
35056;SDS011;21241;51.828;19.574;2022-12-16T03:05:30;76.20;;;64.00;;
35056;SDS011;21241;51.828;19.574;2022-12-16T03:08:04;79.60;;;67.40;;
35056;SDS011;21241;51.828;19.574;2022-12-16T03:10:55;81.30;;;66.10;;
35056;SDS011;21241;51.828;19.574;2022-12-16T03:13:24;77.60;;;65.00;;
35056;SDS011;21241;51.828;19.574;2022-12-16T03:15:57;75.60;;;65.40;;
35056;SDS011;21241;51.828;19.574;2022-12-16T03:18:26;79.50;;;67.30;;
35056;SDS011;21241;51.828;19.574;2022-12-16T03:20:59;78.00;;;67.30;;
35056;SDS011;21241;51.828;19.574;2022-12-16T03:23:34;83.80;;;67.80;;
35056;SDS011;21241;51.828;19.574;2022-12-16T03:26:07;83.00;;;68.30;;
35056;SDS011;21241;51.828;19.574;2022-12-16T03:28:41;77.40;;;65.40;;
35056;SDS011;21241;51.828;19.574;2022-12-16T03:31:14;77.30;;;65.20;;
35056;SDS011;21241;51.828;19.574;2022-12-16T03:33:56;79.20;;;66.00;;
35056;SDS011;21241;51.828;19.574;2022-12-16T03:36:32;78.20;;;66.50;;
35056;SDS011;21241;51.828;19.574;2022-12-16T03:39:02;75.70;;;65.20;;
35056;SDS011;21241;51.828;19.574;2022-12-16T03:41:30;78.50;;;64.80;;
35056;SDS011;21241;51.828;19.574;2022-12-16T03:43:59;81.50;;;66.90;;
35056;SDS011;21241;51.828;19.574;2022-12-16T03:46:27;79.20;;;65.80;;
35056;SDS011;21241;51.828;19.574;2022-12-16T03:48:55;78.90;;;67.00;;
35056;SDS011;21241;51.828;19.574;2022-12-16T03:51:22;77.30;;;65.40;;
35056;SDS011;21241;51.828;19.574;2022-12-16T03:53:50;81.40;;;65.80;;
35056;SDS011;21241;51.828;19.574;2022-12-16T03:56:18;79.20;;;67.40;;
35056;SDS011;21241;51.828;19.574;2022-12-16T03:58:46;81.00;;;66.50;;
35056;SDS011;21241;51.828;19.574;2022-12-16T04:01:14;79.60;;;66.30;;
35056;SDS011;21241;51.828;19.574;2022-12-16T04:03:42;82.40;;;66.60;;
35056;SDS011;21241;51.828;19.574;2022-12-16T04:06:09;83.80;;;68.80;;
35056;SDS011;21241;51.828;19.574;2022-12-16T04:08:37;85.30;;;69.10;;
35056;SDS011;21241;51.828;19.574;2022-12-16T04:11:05;84.40;;;69.90;;
35056;SDS011;21241;51.828;19.574;2022-12-16T04:13:51;86.20;;;69.20;;
35056;SDS011;21241;51.828;19.574;2022-12-16T04:16:38;87.30;;;68.70;;
35056;SDS011;21241;51.828;19.574;2022-12-16T04:19:26;86.20;;;69.80;;
35056;SDS011;21241;51.828;19.574;2022-12-16T04:22:17;84.80;;;70.50;;
35056;SDS011;21241;51.828;19.574;2022-12-16T04:25:09;85.70;;;68.80;;
35056;SDS011;21241;51.828;19.574;2022-12-16T04:27:40;88.20;;;73.10;;
35056;SDS011;21241;51.828;19.574;2022-12-16T04:30:14;91.50;;;71.90;;
35056;SDS011;21241;51.828;19.574;2022-12-16T04:32:51;86.60;;;68.50;;
35056;SDS011;21241;51.828;19.574;2022-12-16T04:35:39;93.90;;;73.20;;
35056;SDS011;21241;51.828;19.574;2022-12-16T04:38:26;89.50;;;71.20;;
35056;SDS011;21241;51.828;19.574;2022-12-16T04:41:13;88.80;;;71.40;;
35056;SDS011;21241;51.828;19.574;2022-12-16T04:43:59;83.60;;;66.50;;
35056;SDS011;21241;51.828;19.574;2022-12-16T04:46:46;81.70;;;65.60;;
35056;SDS011;21241;51.828;19.574;2022-12-16T04:49:33;84.00;;;65.90;;
35056;SDS011;21241;51.828;19.574;2022-12-16T04:52:20;80.80;;;62.80;;
35056;SDS011;21241;51.828;19.574;2022-12-16T04:55:07;82.70;;;64.50;;
35056;SDS011;21241;51.828;19.574;2022-12-16T04:57:59;77.90;;;61.80;;
35056;SDS011;21241;51.828;19.574;2022-12-16T05:00:46;80.50;;;62.10;;
35056;SDS011;21241;51.828;19.574;2022-12-16T05:03:34;79.30;;;63.40;;
35056;SDS011;21241;51.828;19.574;2022-12-16T05:06:21;79.80;;;63.40;;
35056;SDS011;21241;51.828;19.574;2022-12-16T05:09:07;84.70;;;65.30;;
35056;SDS011;21241;51.828;19.574;2022-12-16T05:11:53;86.10;;;67.50;;
35056;SDS011;21241;51.828;19.574;2022-12-16T05:14:40;80.70;;;63.80;;
35056;SDS011;21241;51.828;19.574;2022-12-16T05:17:27;84.60;;;67.90;;
35056;SDS011;21241;51.828;19.574;2022-12-16T05:20:13;91.00;;;70.50;;
35056;SDS011;21241;51.828;19.574;2022-12-16T05:23:00;92.50;;;70.80;;
35056;SDS011;21241;51.828;19.574;2022-12-16T05:25:46;90.10;;;72.80;;
35056;SDS011;21241;51.828;19.574;2022-12-16T05:28:33;92.90;;;72.10;;
35056;SDS011;21241;51.828;19.574;2022-12-16T05:31:19;94.10;;;74.20;;
35056;SDS011;21241;51.828;19.574;2022-12-16T05:34:07;97.90;;;77.50;;
35056;SDS011;21241;51.828;19.574;2022-12-16T05:36:53;88.20;;;71.90;;
35056;SDS011;21241;51.828;19.574;2022-12-16T05:39:40;94.70;;;75.10;;
35056;SDS011;21241;51.828;19.574;2022-12-16T05:42:27;85.50;;;70.70;;
35056;SDS011;21241;51.828;19.574;2022-12-16T05:45:13;90.10;;;72.50;;
35056;SDS011;21241;51.828;19.574;2022-12-16T05:48:00;90.60;;;71.60;;
35056;SDS011;21241;51.828;19.574;2022-12-16T05:50:47;81.20;;;65.10;;
35056;SDS011;21241;51.828;19.574;2022-12-16T05:53:33;82.70;;;65.70;;
35056;SDS011;21241;51.828;19.574;2022-12-16T05:56:20;83.00;;;64.60;;
35056;SDS011;21241;51.828;19.574;2022-12-16T05:59:06;81.30;;;65.00;;
35056;SDS011;21241;51.828;19.574;2022-12-16T06:01:53;89.00;;;76.00;;
35056;SDS011;21241;51.828;19.574;2022-12-16T06:04:40;87.20;;;77.90;;
35056;SDS011;21241;51.828;19.574;2022-12-16T06:07:26;82.30;;;70.50;;
35056;SDS011;21241;51.828;19.574;2022-12-16T06:10:13;83.90;;;69.20;;
35056;SDS011;21241;51.828;19.574;2022-12-16T06:13:00;79.80;;;65.50;;
35056;SDS011;21241;51.828;19.574;2022-12-16T06:15:47;72.90;;;60.50;;
35056;SDS011;21241;51.828;19.574;2022-12-16T06:18:35;78.00;;;62.30;;
35056;SDS011;21241;51.828;19.574;2022-12-16T06:21:22;74.70;;;62.60;;
35056;SDS011;21241;51.828;19.574;2022-12-16T06:24:09;88.40;;;78.80;;
35056;SDS011;21241;51.828;19.574;2022-12-16T06:26:55;80.70;;;67.70;;
35056;SDS011;21241;51.828;19.574;2022-12-16T06:29:42;80.00;;;67.30;;
35056;SDS011;21241;51.828;19.574;2022-12-16T06:32:28;79.40;;;66.30;;
35056;SDS011;21241;51.828;19.574;2022-12-16T06:35:15;80.30;;;65.00;;
35056;SDS011;21241;51.828;19.574;2022-12-16T06:38:02;77.60;;;61.00;;
35056;SDS011;21241;51.828;19.574;2022-12-16T06:40:48;74.50;;;63.00;;
35056;SDS011;21241;51.828;19.574;2022-12-16T06:43:35;72.80;;;59.30;;
35056;SDS011;21241;51.828;19.574;2022-12-16T06:46:21;74.40;;;57.50;;
35056;SDS011;21241;51.828;19.574;2022-12-16T06:49:12;86.80;;;70.40;;
35056;SDS011;21241;51.828;19.574;2022-12-16T06:51:59;74.60;;;60.00;;
35056;SDS011;21241;51.828;19.574;2022-12-16T06:54:51;71.60;;;57.00;;
35056;SDS011;21241;51.828;19.574;2022-12-16T06:57:37;71.20;;;59.00;;
35056;SDS011;21241;51.828;19.574;2022-12-16T07:00:24;71.80;;;61.20;;
35056;SDS011;21241;51.828;19.574;2022-12-16T07:03:10;71.60;;;61.80;;
35056;SDS011;21241;51.828;19.574;2022-12-16T07:06:02;80.60;;;66.80;;
35056;SDS011;21241;51.828;19.574;2022-12-16T07:08:49;83.50;;;66.70;;
35056;SDS011;21241;51.828;19.574;2022-12-16T07:11:35;80.80;;;66.40;;
35056;SDS011;21241;51.828;19.574;2022-12-16T07:14:22;82.00;;;66.30;;
35056;SDS011;21241;51.828;19.574;2022-12-16T07:17:08;79.50;;;64.10;;
35056;SDS011;21241;51.828;19.574;2022-12-16T07:19:55;77.40;;;63.30;;
35056;SDS011;21241;51.828;19.574;2022-12-16T07:22:42;77.30;;;61.80;;
35056;SDS011;21241;51.828;19.574;2022-12-16T07:25:42;81.20;;;62.10;;
35056;SDS011;21241;51.828;19.574;2022-12-16T07:28:28;74.00;;;61.10;;
35056;SDS011;21241;51.828;19.574;2022-12-16T07:31:15;81.10;;;62.20;;
35056;SDS011;21241;51.828;19.574;2022-12-16T07:34:02;79.60;;;62.80;;
35056;SDS011;21241;51.828;19.574;2022-12-16T07:36:48;80.90;;;65.30;;
35056;SDS011;21241;51.828;19.574;2022-12-16T07:39:35;78.40;;;62.70;;
35056;SDS011;21241;51.828;19.574;2022-12-16T07:42:22;82.90;;;69.70;;
35056;SDS011;21241;51.828;19.574;2022-12-16T07:45:09;77.80;;;64.50;;
35056;SDS011;21241;51.828;19.574;2022-12-16T07:47:56;82.20;;;66.30;;
35056;SDS011;21241;51.828;19.574;2022-12-16T07:50:42;73.30;;;59.20;;
35056;SDS011;21241;51.828;19.574;2022-12-16T07:53:29;75.60;;;57.10;;
35056;SDS011;21241;51.828;19.574;2022-12-16T07:56:16;79.40;;;60.80;;
35056;SDS011;21241;51.828;19.574;2022-12-16T07:59:02;76.10;;;59.90;;
35056;SDS011;21241;51.828;19.574;2022-12-16T08:01:49;78.00;;;61.60;;
35056;SDS011;21241;51.828;19.574;2022-12-16T08:04:36;78.40;;;63.90;;
35056;SDS011;21241;51.828;19.574;2022-12-16T08:07:22;92.90;;;75.80;;
35056;SDS011;21241;51.828;19.574;2022-12-16T08:10:09;78.50;;;59.90;;
35056;SDS011;21241;51.828;19.574;2022-12-16T08:12:59;72.20;;;57.40;;
35056;SDS011;21241;51.828;19.574;2022-12-16T08:15:52;76.20;;;60.20;;
35056;SDS011;21241;51.828;19.574;2022-12-16T08:18:39;77.70;;;59.20;;
35056;SDS011;21241;51.828;19.574;2022-12-16T08:21:25;79.70;;;61.50;;
35056;SDS011;21241;51.828;19.574;2022-12-16T08:24:12;80.40;;;62.40;;
35056;SDS011;21241;51.828;19.574;2022-12-16T08:26:59;76.30;;;61.80;;
35056;SDS011;21241;51.828;19.574;2022-12-16T08:29:45;75.20;;;60.80;;
35056;SDS011;21241;51.828;19.574;2022-12-16T08:32:32;77.50;;;61.50;;
35056;SDS011;21241;51.828;19.574;2022-12-16T08:35:25;76.40;;;60.80;;
35056;SDS011;21241;51.828;19.574;2022-12-16T08:38:12;78.40;;;62.40;;
35056;SDS011;21241;51.828;19.574;2022-12-16T08:40:58;78.80;;;62.60;;
35056;SDS011;21241;51.828;19.574;2022-12-16T08:43:45;73.60;;;59.70;;
35056;SDS011;21241;51.828;19.574;2022-12-16T08:46:31;77.30;;;62.40;;
35056;SDS011;21241;51.828;19.574;2022-12-16T08:49:18;78.20;;;63.50;;
35056;SDS011;21241;51.828;19.574;2022-12-16T08:52:05;76.40;;;59.40;;
35056;SDS011;21241;51.828;19.574;2022-12-16T08:54:51;75.70;;;59.60;;
35056;SDS011;21241;51.828;19.574;2022-12-16T08:57:38;74.30;;;58.50;;
35056;SDS011;21241;51.828;19.574;2022-12-16T09:00:26;76.70;;;60.30;;
35056;SDS011;21241;51.828;19.574;2022-12-16T09:03:12;79.20;;;63.30;;
35056;SDS011;21241;51.828;19.574;2022-12-16T09:05:59;76.40;;;59.20;;
35056;SDS011;21241;51.828;19.574;2022-12-16T09:08:46;77.10;;;59.20;;
35056;SDS011;21241;51.828;19.574;2022-12-16T09:11:32;74.20;;;59.30;;
35056;SDS011;21241;51.828;19.574;2022-12-16T09:14:19;77.70;;;60.80;;
35056;SDS011;21241;51.828;19.574;2022-12-16T09:17:06;76.60;;;59.30;;
35056;SDS011;21241;51.828;19.574;2022-12-16T09:19:52;78.30;;;60.40;;
35056;SDS011;21241;51.828;19.574;2022-12-16T09:22:39;78.20;;;60.30;;
35056;SDS011;21241;51.828;19.574;2022-12-16T09:25:25;76.90;;;58.00;;
35056;SDS011;21241;51.828;19.574;2022-12-16T09:28:12;77.70;;;59.40;;
35056;SDS011;21241;51.828;19.574;2022-12-16T09:30:58;78.00;;;58.80;;
35056;SDS011;21241;51.828;19.574;2022-12-16T09:33:45;80.60;;;62.10;;
35056;SDS011;21241;51.828;19.574;2022-12-16T09:36:32;79.20;;;61.00;;
35056;SDS011;21241;51.828;19.574;2022-12-16T09:39:19;73.90;;;58.80;;
35056;SDS011;21241;51.828;19.574;2022-12-16T09:45:31;78.90;;;60.50;;
35056;SDS011;21241;51.828;19.574;2022-12-16T09:51:33;74.80;;;59.40;;
35056;SDS011;21241;51.828;19.574;2022-12-16T09:54:22;77.70;;;58.60;;
35056;SDS011;21241;51.828;19.574;2022-12-16T09:57:12;81.80;;;61.50;;
35056;SDS011;21241;51.828;19.574;2022-12-16T09:59:59;80.10;;;61.70;;
35056;SDS011;21241;51.828;19.574;2022-12-16T10:02:48;76.70;;;59.50;;
35056;SDS011;21241;51.828;19.574;2022-12-16T10:05:53;76.20;;;58.30;;
35056;SDS011;21241;51.828;19.574;2022-12-16T10:08:49;75.10;;;57.40;;
35056;SDS011;21241;51.828;19.574;2022-12-16T10:11:49;78.10;;;59.00;;
35056;SDS011;21241;51.828;19.574;2022-12-16T10:14:48;81.40;;;57.70;;
35056;SDS011;21241;51.828;19.574;2022-12-16T10:17:39;75.30;;;57.20;;
35056;SDS011;21241;51.828;19.574;2022-12-16T10:20:38;74.20;;;57.00;;
35056;SDS011;21241;51.828;19.574;2022-12-16T10:26:20;77.20;;;58.30;;
35056;SDS011;21241;51.828;19.574;2022-12-16T10:29:17;76.70;;;58.40;;
35056;SDS011;21241;51.828;19.574;2022-12-16T10:32:49;77.20;;;59.80;;
35056;SDS011;21241;51.828;19.574;2022-12-16T10:35:25;76.10;;;57.60;;
35056;SDS011;21241;51.828;19.574;2022-12-16T10:38:35;76.30;;;56.50;;
35056;SDS011;21241;51.828;19.574;2022-12-16T10:41:27;76.10;;;57.10;;
35056;SDS011;21241;51.828;19.574;2022-12-16T10:44:19;76.30;;;59.20;;
35056;SDS011;21241;51.828;19.574;2022-12-16T10:47:09;74.10;;;57.70;;
35056;SDS011;21241;51.828;19.574;2022-12-16T10:49:56;77.90;;;57.00;;
35056;SDS011;21241;51.828;19.574;2022-12-16T10:52:48;73.60;;;56.50;;
35056;SDS011;21241;51.828;19.574;2022-12-16T10:55:42;76.40;;;57.60;;
35056;SDS011;21241;51.828;19.574;2022-12-16T10:58:38;75.90;;;58.10;;
35056;SDS011;21241;51.828;19.574;2022-12-16T11:01:32;74.90;;;58.40;;
35056;SDS011;21241;51.828;19.574;2022-12-16T11:04:29;71.50;;;55.90;;
35056;SDS011;21241;51.828;19.574;2022-12-16T11:16:20;78.30;;;60.80;;
35056;SDS011;21241;51.828;19.574;2022-12-16T11:19:18;79.70;;;59.70;;
35056;SDS011;21241;51.828;19.574;2022-12-16T11:22:09;77.20;;;59.60;;
35056;SDS011;21241;51.828;19.574;2022-12-16T11:28:04;81.20;;;60.20;;
35056;SDS011;21241;51.828;19.574;2022-12-16T11:31:02;78.10;;;59.90;;
35056;SDS011;21241;51.828;19.574;2022-12-16T11:33:51;76.40;;;61.00;;
35056;SDS011;21241;51.828;19.574;2022-12-16T11:36:39;73.90;;;58.70;;
35056;SDS011;21241;51.828;19.574;2022-12-16T11:39:28;79.20;;;61.20;;
35056;SDS011;21241;51.828;19.574;2022-12-16T11:42:24;78.90;;;60.50;;
35056;SDS011;21241;51.828;19.574;2022-12-16T11:45:13;76.00;;;59.80;;
35056;SDS011;21241;51.828;19.574;2022-12-16T11:48:02;74.70;;;58.50;;
35056;SDS011;21241;51.828;19.574;2022-12-16T11:50:55;77.40;;;60.40;;
35056;SDS011;21241;51.828;19.574;2022-12-16T11:54:00;78.20;;;59.80;;
35056;SDS011;21241;51.828;19.574;2022-12-16T11:56:54;78.30;;;60.80;;
35056;SDS011;21241;51.828;19.574;2022-12-16T11:59:43;77.60;;;57.80;;
35056;SDS011;21241;51.828;19.574;2022-12-16T12:02:37;76.30;;;59.70;;
35056;SDS011;21241;51.828;19.574;2022-12-16T12:11:56;73.70;;;57.10;;
35056;SDS011;21241;51.828;19.574;2022-12-16T12:15:08;76.30;;;57.70;;
35056;SDS011;21241;51.828;19.574;2022-12-16T12:18:23;74.80;;;57.70;;
35056;SDS011;21241;51.828;19.574;2022-12-16T12:21:38;78.20;;;57.70;;
35056;SDS011;21241;51.828;19.574;2022-12-16T12:30:20;73.90;;;56.80;;
35056;SDS011;21241;51.828;19.574;2022-12-16T12:36:09;76.00;;;58.50;;
35056;SDS011;21241;51.828;19.574;2022-12-16T12:39:14;73.90;;;57.10;;
35056;SDS011;21241;51.828;19.574;2022-12-16T12:52:13;79.70;;;58.90;;
35056;SDS011;21241;51.828;19.574;2022-12-16T12:58:16;75.10;;;58.10;;
35056;SDS011;21241;51.828;19.574;2022-12-16T13:01:03;78.20;;;60.30;;
35056;SDS011;21241;51.828;19.574;2022-12-16T13:04:09;80.30;;;62.30;;
35056;SDS011;21241;51.828;19.574;2022-12-16T13:06:58;80.20;;;59.00;;
35056;SDS011;21241;51.828;19.574;2022-12-16T13:10:09;76.70;;;60.30;;
35056;SDS011;21241;51.828;19.574;2022-12-16T13:16:03;78.60;;;61.00;;
35056;SDS011;21241;51.828;19.574;2022-12-16T13:22:25;76.50;;;59.70;;
35056;SDS011;21241;51.828;19.574;2022-12-16T13:28:31;84.20;;;63.10;;
35056;SDS011;21241;51.828;19.574;2022-12-16T13:31:19;86.50;;;63.60;;
35056;SDS011;21241;51.828;19.574;2022-12-16T13:34:18;79.00;;;60.20;;
35056;SDS011;21241;51.828;19.574;2022-12-16T13:37:18;81.40;;;61.50;;
35056;SDS011;21241;51.828;19.574;2022-12-16T13:40:18;86.50;;;64.40;;
35056;SDS011;21241;51.828;19.574;2022-12-16T13:43:40;82.30;;;61.40;;
35056;SDS011;21241;51.828;19.574;2022-12-16T13:46:43;79.10;;;61.00;;
35056;SDS011;21241;51.828;19.574;2022-12-16T13:55:53;82.50;;;61.90;;
35056;SDS011;21241;51.828;19.574;2022-12-16T13:58:42;83.00;;;64.50;;
35056;SDS011;21241;51.828;19.574;2022-12-16T14:01:42;85.00;;;63.80;;
35056;SDS011;21241;51.828;19.574;2022-12-16T14:04:50;84.20;;;64.50;;
35056;SDS011;21241;51.828;19.574;2022-12-16T14:07:38;88.30;;;63.20;;
35056;SDS011;21241;51.828;19.574;2022-12-16T14:16:36;88.70;;;65.20;;
35056;SDS011;21241;51.828;19.574;2022-12-16T14:28:49;86.00;;;63.80;;
35056;SDS011;21241;51.828;19.574;2022-12-16T14:31:21;90.70;;;64.40;;
35056;SDS011;21241;51.828;19.574;2022-12-16T14:40:05;88.50;;;64.40;;
35056;SDS011;21241;51.828;19.574;2022-12-16T14:43:15;86.00;;;64.20;;
35056;SDS011;21241;51.828;19.574;2022-12-16T14:46:04;91.20;;;65.30;;
35056;SDS011;21241;51.828;19.574;2022-12-16T14:48:51;89.90;;;63.70;;
35056;SDS011;21241;51.828;19.574;2022-12-16T14:51:44;88.40;;;65.70;;
35056;SDS011;21241;51.828;19.574;2022-12-16T14:54:35;92.80;;;66.90;;
35056;SDS011;21241;51.828;19.574;2022-12-16T14:57:27;89.60;;;67.10;;
35056;SDS011;21241;51.828;19.574;2022-12-16T15:00:16;86.40;;;64.60;;
35056;SDS011;21241;51.828;19.574;2022-12-16T15:03:29;89.90;;;64.30;;
35056;SDS011;21241;51.828;19.574;2022-12-16T15:06:25;89.30;;;65.10;;
35056;SDS011;21241;51.828;19.574;2022-12-16T15:10:00;92.70;;;66.10;;
35056;SDS011;21241;51.828;19.574;2022-12-16T15:12:28;93.20;;;66.30;;
35056;SDS011;21241;51.828;19.574;2022-12-16T15:15:18;96.00;;;66.10;;
35056;SDS011;21241;51.828;19.574;2022-12-16T15:18:16;91.10;;;66.90;;
35056;SDS011;21241;51.828;19.574;2022-12-16T15:21:05;93.80;;;66.10;;
35056;SDS011;21241;51.828;19.574;2022-12-16T15:23:52;96.30;;;68.90;;
35056;SDS011;21241;51.828;19.574;2022-12-16T15:26:38;96.60;;;67.20;;
35056;SDS011;21241;51.828;19.574;2022-12-16T15:29:38;95.10;;;67.30;;
35056;SDS011;21241;51.828;19.574;2022-12-16T15:32:27;95.30;;;67.20;;
35056;SDS011;21241;51.828;19.574;2022-12-16T15:35:25;96.40;;;66.80;;
35056;SDS011;21241;51.828;19.574;2022-12-16T15:41:02;95.50;;;67.20;;
35056;SDS011;21241;51.828;19.574;2022-12-16T15:43:50;99.40;;;67.20;;
35056;SDS011;21241;51.828;19.574;2022-12-16T15:46:37;92.90;;;67.90;;
35056;SDS011;21241;51.828;19.574;2022-12-16T15:49:34;98.30;;;69.30;;
35056;SDS011;21241;51.828;19.574;2022-12-16T15:52:37;96.30;;;66.00;;
35056;SDS011;21241;51.828;19.574;2022-12-16T15:58:30;97.10;;;68.00;;
35056;SDS011;21241;51.828;19.574;2022-12-16T16:01:25;96.10;;;69.60;;
35056;SDS011;21241;51.828;19.574;2022-12-16T16:04:33;98.50;;;69.60;;
35056;SDS011;21241;51.828;19.574;2022-12-16T16:07:20;97.60;;;68.30;;
35056;SDS011;21241;51.828;19.574;2022-12-16T16:10:22;98.10;;;69.20;;
35056;SDS011;21241;51.828;19.574;2022-12-16T16:13:10;95.70;;;67.90;;
35056;SDS011;21241;51.828;19.574;2022-12-16T16:15:56;97.60;;;69.10;;
35056;SDS011;21241;51.828;19.574;2022-12-16T16:18:43;96.40;;;67.80;;
35056;SDS011;21241;51.828;19.574;2022-12-16T16:21:30;93.00;;;66.60;;
35056;SDS011;21241;51.828;19.574;2022-12-16T16:24:16;95.10;;;67.50;;
35056;SDS011;21241;51.828;19.574;2022-12-16T16:27:04;93.70;;;69.90;;
35056;SDS011;21241;51.828;19.574;2022-12-16T16:29:59;97.00;;;67.60;;
35056;SDS011;21241;51.828;19.574;2022-12-16T16:32:46;95.80;;;67.60;;
35056;SDS011;21241;51.828;19.574;2022-12-16T16:35:32;93.50;;;68.50;;
35056;SDS011;21241;51.828;19.574;2022-12-16T16:38:19;91.10;;;67.90;;
35056;SDS011;21241;51.828;19.574;2022-12-16T16:41:09;101.80;;;70.50;;
35056;SDS011;21241;51.828;19.574;2022-12-16T16:43:59;95.70;;;67.80;;
35056;SDS011;21241;51.828;19.574;2022-12-16T16:46:46;99.60;;;68.90;;
35056;SDS011;21241;51.828;19.574;2022-12-16T16:49:34;104.00;;;72.30;;
35056;SDS011;21241;51.828;19.574;2022-12-16T16:52:23;100.30;;;70.70;;
35056;SDS011;21241;51.828;19.574;2022-12-16T16:55:15;103.90;;;74.30;;
35056;SDS011;21241;51.828;19.574;2022-12-16T16:58:09;101.10;;;71.60;;
35056;SDS011;21241;51.828;19.574;2022-12-16T17:00:58;97.10;;;68.80;;
35056;SDS011;21241;51.828;19.574;2022-12-16T17:03:45;98.30;;;70.50;;
35056;SDS011;21241;51.828;19.574;2022-12-16T17:06:31;100.40;;;71.40;;
35056;SDS011;21241;51.828;19.574;2022-12-16T17:09:17;98.30;;;71.00;;
35056;SDS011;21241;51.828;19.574;2022-12-16T17:12:18;97.80;;;70.90;;
35056;SDS011;21241;51.828;19.574;2022-12-16T17:15:31;101.70;;;70.70;;
35056;SDS011;21241;51.828;19.574;2022-12-16T17:18:20;99.10;;;71.00;;
35056;SDS011;21241;51.828;19.574;2022-12-16T17:21:14;103.70;;;70.60;;
35056;SDS011;21241;51.828;19.574;2022-12-16T17:24:00;99.50;;;71.70;;
35056;SDS011;21241;51.828;19.574;2022-12-16T17:26:47;107.10;;;75.90;;
35056;SDS011;21241;51.828;19.574;2022-12-16T17:29:33;96.90;;;69.00;;
35056;SDS011;21241;51.828;19.574;2022-12-16T17:32:20;96.50;;;69.30;;
35056;SDS011;21241;51.828;19.574;2022-12-16T17:35:11;100.50;;;68.10;;
35056;SDS011;21241;51.828;19.574;2022-12-16T17:37:58;99.70;;;68.60;;
35056;SDS011;21241;51.828;19.574;2022-12-16T17:40:51;100.60;;;72.00;;
35056;SDS011;21241;51.828;19.574;2022-12-16T17:43:38;95.50;;;65.80;;
35056;SDS011;21241;51.828;19.574;2022-12-16T17:46:24;94.30;;;67.50;;
35056;SDS011;21241;51.828;19.574;2022-12-16T17:49:11;94.70;;;65.10;;
35056;SDS011;21241;51.828;19.574;2022-12-16T17:51:58;92.60;;;65.70;;
35056;SDS011;21241;51.828;19.574;2022-12-16T17:54:44;95.60;;;66.60;;
35056;SDS011;21241;51.828;19.574;2022-12-16T17:57:31;95.40;;;63.60;;
35056;SDS011;21241;51.828;19.574;2022-12-16T18:00:17;94.40;;;67.50;;
35056;SDS011;21241;51.828;19.574;2022-12-16T18:03:04;94.50;;;63.70;;